FYKT/KMP METAR and TAF weather

Enter ICAO airport designator
Station Type Date Time Source
FYKT METAR 2018/10/20 12:00 UTC NOAA

FYKT 201200Z 12015KT CAVOK 32/M03 Q1018


Station Type Date Time Source
FYKT Decoded METAR 2018/10/20 12:00 UTC NOAA

Keetmanshoop, Namibia (FYKT) 26-32S 018-07E 1100M
Oct 20, 2018 - 08:00 AM EDT / 2018.10.20 1200 UTC
Wind: from the ESE (120 degrees) at 17 MPH (15 KT):0
Visibility: greater than 7 mile(s):0
Temperature: 89 F (32 C)
Dew Point: 26 F (-3 C)
Relative Humidity: 10%
Pressure (altimeter): 30.06 in. Hg (1018 hPa)
ob: FYKT 201200Z 12015KT CAVOK 32/M03 Q1018
cycle: 12

Station Type Date Time Source
FYKT TAF 2018/10/21 06:11 UTC NOAA

TAF FYKT 210400Z 2106/2206 08022KT CAVOK
BECMG 2110/2112 33010KT 9999 SCT050 PROB30
TEMPO 2113/2118 -TSRA FEW040CB


Example: see airport list